createdAt,value
2022-09-26T00:01:50.521Z,99903.13
2022-09-26T00:04:24.616Z,99912.06
2022-09-26T00:06:56.497Z,99913.94
2022-09-26T00:09:27.186Z,99910.41
2022-09-26T00:11:56.335Z,99910.38
2022-09-26T00:14:30.040Z,99878.22
2022-09-26T00:16:59.269Z,99908.41
2022-09-26T00:19:29.502Z,99910.16
2022-09-26T00:21:58.365Z,99911.88
2022-09-26T00:24:27.141Z,99906.59
2022-09-26T00:26:56.024Z,99910.94
2022-09-26T00:29:24.847Z,99914.44
2022-09-26T00:31:53.776Z,99919.66
2022-09-26T00:34:22.757Z,99923.00
2022-09-26T00:36:53.071Z,99915.72
2022-09-26T00:39:21.977Z,99912.03
2022-09-26T00:41:50.818Z,99915.47
2022-09-26T00:44:42.181Z,99915.34
2022-09-26T00:47:22.741Z,99913.56
2022-09-26T00:49:53.981Z,99916.25
2022-09-26T00:52:30.542Z,99903.19
2022-09-26T00:55:03.557Z,99904.97
2022-09-26T00:57:39.180Z,99905.81
2022-09-26T01:00:11.913Z,99836.47
2022-09-26T01:02:41.517Z,99911.75
2022-09-26T01:05:13.915Z,99908.06
2022-09-26T01:07:44.560Z,99911.50
2022-09-26T01:10:15.532Z,99907.94
2022-09-26T01:12:45.316Z,99899.19
2022-09-26T01:15:14.665Z,99898.41
2022-09-26T01:17:45.882Z,99900.22
2022-09-26T01:20:42.394Z,99890.63
2022-09-26T01:23:52.871Z,99883.59
2022-09-26T01:26:59.281Z,99874.91
2022-09-26T01:29:56.672Z,99872.34
2022-09-26T01:32:50.142Z,99872.25
2022-09-26T01:35:36.572Z,99859.88
2022-09-26T01:38:20.361Z,99859.88
2022-09-26T01:41:05.302Z,99853.75
2022-09-26T01:43:43.038Z,99857.44
2022-09-26T01:46:21.184Z,99858.56
2022-09-26T01:48:56.561Z,99849.13
2022-09-26T01:51:33.917Z,99756.63
2022-09-26T01:54:07.221Z,99855.50
2022-09-26T01:56:40.849Z,99855.56
2022-09-26T01:59:15.337Z,99851.22
2022-09-26T02:01:54.710Z,99851.34
2022-09-26T02:04:30.265Z,99857.47
2022-09-26T02:07:03.374Z,99852.31
2022-09-26T02:09:37.637Z,99846.19
2022-09-26T02:12:10.212Z,99851.56
2022-09-26T02:14:42.492Z,99847.97
2022-09-26T02:17:15.934Z,99827.16
2022-09-26T02:19:53.875Z,99851.09
2022-09-26T02:22:23.005Z,99856.75
2022-09-26T02:24:52.019Z,99849.28
2022-09-26T02:27:22.949Z,99850.66
2022-09-26T02:29:52.102Z,99842.47
2022-09-26T02:32:26.100Z,99849.16
2022-09-26T02:34:57.545Z,99846.22
2022-09-26T02:37:28.947Z,99838.94
2022-09-26T02:39:59.170Z,99841.41
2022-09-26T02:42:36.611Z,99836.88
2022-09-26T02:45:21.826Z,99834.88
2022-09-26T02:48:17.359Z,99839.97
2022-09-26T02:51:10.094Z,99832.78
2022-09-26T02:54:03.985Z,99834.44
2022-09-26T02:56:55.467Z,99842.22
2022-09-26T02:59:37.117Z,99837.66
2022-09-26T03:02:13.522Z,99833.16
2022-09-26T03:04:54.545Z,99837.47
2022-09-26T03:07:31.030Z,99825.09
2022-09-26T03:10:04.843Z,99823.31
2022-09-26T03:12:35.893Z,99815.31
2022-09-26T03:15:07.181Z,99824.72
2022-09-26T03:17:39.148Z,99813.13
2022-09-26T03:20:13.338Z,99814.72
2022-09-26T03:22:44.918Z,99811.94
2022-09-26T03:25:18.642Z,99807.47
2022-09-26T03:27:56.108Z,99802.91
2022-09-26T03:30:25.941Z,99815.28
2022-09-26T03:33:27.175Z,99810.75
2022-09-26T03:35:59.565Z,99803.69
2022-09-26T03:38:30.179Z,99802.72
2022-09-26T03:41:10.152Z,99807.06
2022-09-26T03:43:58.291Z,99762.84
2022-09-26T03:46:39.087Z,99807.78
2022-09-26T03:49:09.513Z,99803.31
2022-09-26T03:51:38.904Z,99811.13
2022-09-26T03:54:09.145Z,99806.59
2022-09-26T03:56:39.257Z,99810.84
2022-09-26T03:59:08.166Z,99813.44
2022-09-26T04:01:37.166Z,99813.41
2022-09-26T04:04:06.250Z,99820.38
2022-09-26T04:06:35.687Z,99813.22
2022-09-26T04:09:05.357Z,99816.66
2022-09-26T04:11:38.256Z,99822.75
2022-09-26T04:14:08.303Z,99813.13
2022-09-26T04:16:38.504Z,99819.25
2022-09-26T04:19:29.575Z,99818.38
2022-09-26T04:22:00.011Z,99808.66
2022-09-26T04:24:33.065Z,99796.22
2022-09-26T04:27:03.416Z,99800.50
2022-09-26T04:29:32.808Z,99800.59
2022-09-26T04:32:13.795Z,99795.41
2022-09-26T04:34:55.198Z,99794.63
2022-09-26T04:37:24.166Z,99790.25
2022-09-26T04:39:57.281Z,99787.69
2022-09-26T04:42:27.591Z,99791.19
2022-09-26T04:44:57.281Z,99788.59
2022-09-26T04:47:26.409Z,99787.78
2022-09-26T04:50:24.571Z,99787.78
2022-09-26T04:53:12.258Z,99787.78
2022-09-26T04:55:54.958Z,99782.50
2022-09-26T04:58:25.336Z,99778.06
2022-09-26T05:00:54.422Z,99783.41
2022-09-26T05:03:33.165Z,99780.75
2022-09-26T05:06:04.924Z,99786.06
2022-09-26T05:08:34.355Z,99779.84
2022-09-26T05:11:03.377Z,99774.50
2022-09-26T05:13:34.320Z,99777.97
2022-09-26T05:16:04.094Z,99781.44
2022-09-26T05:18:35.526Z,99764.72
2022-09-26T05:21:06.666Z,99771.81
2022-09-26T05:24:05.926Z,99771.81
2022-09-26T05:26:44.050Z,99777.09
2022-09-26T05:29:17.455Z,99778.78
2022-09-26T05:31:54.809Z,99778.78
2022-09-26T05:34:28.595Z,99780.53
2022-09-26T05:36:57.463Z,99787.50
2022-09-26T05:39:43.570Z,99796.31
2022-09-26T05:42:15.462Z,99811.28
2022-09-26T05:44:46.565Z,99799.78
2022-09-26T05:47:17.263Z,99803.31
2022-09-26T05:49:46.251Z,99804.16
2022-09-26T05:52:18.251Z,99797.94
2022-09-26T05:54:47.080Z,99799.59
2022-09-26T05:57:36.207Z,99798.69
2022-09-26T06:00:08.872Z,99794.16
2022-09-26T06:02:46.623Z,99790.44
2022-09-26T06:05:24.756Z,99797.31
2022-09-26T06:08:22.921Z,99791.75
2022-09-26T06:11:06.297Z,99785.41
2022-09-26T06:13:36.231Z,99788.81
2022-09-26T06:16:11.597Z,99800.28
2022-09-26T06:18:42.106Z,99797.75
2022-09-26T06:21:15.899Z,99791.53
2022-09-26T06:23:45.063Z,99792.50
2022-09-26T06:26:18.159Z,99799.53
2022-09-26T06:28:47.293Z,99803.00
2022-09-26T06:31:20.005Z,99805.53
2022-09-26T06:34:08.277Z,99806.97
2022-09-26T06:36:47.059Z,99811.13
2022-09-26T06:39:16.287Z,99798.47
2022-09-26T06:41:46.970Z,99801.59
2022-09-26T06:44:30.476Z,99803.88
2022-09-26T06:47:27.246Z,99795.47
2022-09-26T06:50:25.226Z,99795.66
2022-09-26T06:52:57.425Z,99787.09
2022-09-26T06:55:27.610Z,99784.66
2022-09-26T06:57:58.518Z,99780.63
2022-09-26T07:00:30.732Z,99780.13
2022-09-26T07:03:09.950Z,99783.81
2022-09-26T07:05:49.497Z,99776.75
2022-09-26T07:08:18.625Z,99771.84
2022-09-26T07:10:48.233Z,99772.63
2022-09-26T07:13:24.251Z,99781.81
2022-09-26T07:15:53.361Z,99780.97
2022-09-26T07:18:42.155Z,99725.94
2022-09-26T07:21:37.389Z,99777.81
2022-09-26T07:24:27.408Z,99787.28
2022-09-26T07:26:56.285Z,99787.44
2022-09-26T07:29:25.114Z,99784.56
2022-09-26T07:31:54.675Z,99783.88
2022-09-26T07:34:45.190Z,99779.19
2022-09-26T07:37:16.714Z,99777.72
2022-09-26T07:39:51.191Z,99775.34
2022-09-26T07:42:22.953Z,99777.38
2022-09-26T07:47:59.333Z,99767.69
2022-09-26T07:50:50.005Z,99781.78
2022-09-26T07:53:29.408Z,99780.94
2022-09-26T07:56:18.313Z,99775.72
2022-09-26T07:59:19.361Z,99780.41
2022-09-26T08:02:22.402Z,99779.06
2022-09-26T08:04:58.859Z,99779.69
2022-09-26T08:07:36.872Z,99785.06
2022-09-26T08:10:20.070Z,99778.19
2022-09-26T08:13:07.352Z,99780.69
2022-09-26T08:15:44.245Z,99785.13
2022-09-26T08:18:21.773Z,99777.50
2022-09-26T08:20:50.720Z,99773.34
2022-09-26T08:23:21.247Z,99768.03
2022-09-26T08:26:10.224Z,99774.22
2022-09-26T08:28:48.500Z,99773.00
2022-09-26T08:31:18.040Z,99769.59
2022-09-26T08:33:48.365Z,99759.13
2022-09-26T08:36:17.645Z,99767.00
2022-09-26T08:39:14.083Z,99758.84
2022-09-26T08:42:05.224Z,99760.44
2022-09-26T08:45:33.758Z,99764.47
2022-09-26T08:48:53.598Z,99738.28
2022-09-26T08:51:31.036Z,99754.81
2022-09-26T08:54:07.691Z,99758.97
2022-09-26T08:56:42.033Z,99760.88
2022-09-26T08:59:19.822Z,99750.50
2022-09-26T09:01:51.863Z,99754.19
2022-09-26T09:04:39.923Z,99754.75
2022-09-26T09:07:20.983Z,99748.41
2022-09-26T09:09:54.444Z,99743.50
2022-09-26T09:12:57.918Z,99691.25
2022-09-26T09:16:07.370Z,99745.22
2022-09-26T09:19:06.199Z,99739.78
2022-09-26T09:22:23.878Z,99732.16
2022-09-26T09:25:19.644Z,99730.69
2022-09-26T09:28:14.263Z,99724.88
2022-09-26T09:30:47.113Z,99730.31
2022-09-26T09:33:39.063Z,99738.56
2022-09-26T09:36:26.038Z,99717.56
2022-09-26T09:39:28.174Z,99696.97
2022-09-26T09:42:06.630Z,99731.72
2022-09-26T09:44:47.020Z,99733.31
2022-09-26T09:47:17.837Z,99730.63
2022-09-26T09:49:52.231Z,99731.88
2022-09-26T09:52:46.258Z,99728.63
2022-09-26T09:55:40.614Z,99728.16
2022-09-26T09:58:30.140Z,99730.31
2022-09-26T10:01:16.712Z,99706.34
2022-09-26T10:03:56.741Z,99731.44
2022-09-26T10:06:45.714Z,99725.25
2022-09-26T10:09:38.873Z,99717.63
2022-09-26T10:12:30.792Z,99718.34
2022-09-26T10:15:27.457Z,99705.28
2022-09-26T10:18:25.284Z,99705.84
2022-09-26T10:21:17.933Z,99697.31
2022-09-26T10:23:50.479Z,99692.50
2022-09-26T10:26:40.044Z,99687.03
2022-09-26T10:29:34.172Z,99552.34
2022-09-26T10:32:04.591Z,99682.34
2022-09-26T10:34:39.588Z,99681.00
2022-09-26T10:37:24.572Z,99678.81
2022-09-26T10:40:21.392Z,99688.56
2022-09-26T10:42:51.896Z,99696.84
2022-09-26T10:45:27.524Z,99664.59
2022-09-26T10:48:00.611Z,99684.53
2022-09-26T10:51:10.294Z,99685.41
2022-09-26T10:54:01.785Z,99675.75
2022-09-26T10:56:45.872Z,99684.91
2022-09-26T10:59:17.718Z,99683.06
2022-09-26T11:01:57.588Z,99681.66
2022-09-26T11:04:50.226Z,99673.19
2022-09-26T11:07:52.418Z,99663.59
2022-09-26T11:10:42.285Z,99670.44
2022-09-26T11:13:32.360Z,99649.31
2022-09-26T11:16:13.109Z,99642.69
2022-09-26T11:18:58.156Z,99656.41
2022-09-26T11:21:38.020Z,99558.91
2022-09-26T11:24:17.255Z,99653.28
2022-09-26T11:26:56.965Z,99651.16
2022-09-26T11:29:39.870Z,99647.47
2022-09-26T11:32:23.886Z,99640.63
2022-09-26T11:35:03.538Z,99638.09
2022-09-26T11:37:47.541Z,99633.53
2022-09-26T11:40:44.393Z,99626.75
2022-09-26T11:43:45.151Z,99488.88
2022-09-26T11:46:48.208Z,99433.84
2022-09-26T11:50:14.890Z,99623.84
2022-09-26T11:53:29.733Z,99534.72
2022-09-26T11:56:29.815Z,99575.47
2022-09-26T11:59:21.110Z,99573.25
2022-09-26T12:02:03.638Z,99607.00
2022-09-26T12:05:14.228Z,99591.88
2022-09-26T12:07:59.062Z,99591.38
2022-09-26T12:10:42.566Z,99595.97
2022-09-26T12:13:29.908Z,99592.00
2022-09-26T12:16:12.843Z,99378.19
2022-09-26T12:18:59.771Z,99597.16
2022-09-26T12:22:00.017Z,99591.16
2022-09-26T12:24:37.765Z,99588.53
2022-09-26T12:27:18.162Z,99586.91
2022-09-26T12:30:02.493Z,99583.66
2022-09-26T12:32:53.590Z,99583.16
2022-09-26T12:35:49.072Z,99587.28
2022-09-26T12:38:37.882Z,99537.03
2022-09-26T12:41:31.114Z,99578.38
2022-09-26T12:44:42.252Z,99574.22
2022-09-26T12:47:46.736Z,99488.84
2022-09-26T12:50:25.025Z,99572.31
2022-09-26T12:53:39.738Z,99537.22
2022-09-26T12:56:11.381Z,99555.59
2022-09-26T12:59:08.490Z,99552.66
2022-09-26T13:02:17.789Z,99552.50
2022-09-26T13:05:12.558Z,99531.88
2022-09-26T13:08:02.449Z,99540.38
2022-09-26T13:10:47.341Z,99547.50
2022-09-26T13:13:56.093Z,99516.63
2022-09-26T13:16:36.351Z,99536.38
2022-09-26T13:19:23.723Z,99422.47
2022-09-26T13:22:02.303Z,99541.00
2022-09-26T13:24:46.953Z,99390.34
2022-09-26T13:27:23.733Z,99536.25
2022-09-26T13:30:03.523Z,99532.72
2022-09-26T13:32:44.974Z,99523.28
2022-09-26T13:35:25.193Z,99509.34
2022-09-26T13:38:32.509Z,99424.28
2022-09-26T13:41:19.978Z,99520.63
2022-09-26T13:44:03.626Z,99514.44
2022-09-26T13:46:52.769Z,99509.06
2022-09-26T13:49:51.116Z,99495.31
2022-09-26T13:52:35.235Z,99502.19
2022-09-26T13:55:15.180Z,99500.22
2022-09-26T13:58:03.900Z,99500.88
2022-09-26T14:00:57.647Z,99495.41
2022-09-26T14:04:18.112Z,99462.81
2022-09-26T14:07:27.675Z,99476.47
2022-09-26T14:10:13.759Z,99480.88
2022-09-26T14:13:19.151Z,99407.66
2022-09-26T14:16:01.394Z,99404.03
2022-09-26T14:18:59.231Z,99467.22
2022-09-26T14:21:45.056Z,99452.44
2022-09-26T14:24:38.711Z,99417.97
2022-09-26T14:27:43.966Z,99441.00
2022-09-26T14:30:30.325Z,99424.63
2022-09-26T14:33:06.141Z,99417.31
2022-09-26T14:35:38.787Z,99456.53
2022-09-26T14:38:17.291Z,99454.81
2022-09-26T14:40:56.698Z,99406.19
2022-09-26T14:43:31.501Z,99442.91
2022-09-26T14:46:05.202Z,99448.94
2022-09-26T14:48:38.366Z,99443.63
2022-09-26T14:51:25.618Z,99446.00
2022-09-26T14:54:01.884Z,99437.00
2022-09-26T14:56:43.006Z,99434.75
2022-09-26T14:59:45.038Z,99426.06
2022-09-26T15:02:28.904Z,99430.81
2022-09-26T15:05:12.569Z,99381.94
2022-09-26T15:07:47.689Z,99421.22
2022-09-26T15:10:26.338Z,99398.13
2022-09-26T15:13:11.785Z,99408.66
2022-09-26T15:15:55.501Z,99378.84
2022-09-26T15:18:36.368Z,99368.50
2022-09-26T15:21:20.969Z,99354.88
2022-09-26T15:23:52.429Z,99398.69
2022-09-26T15:26:26.405Z,99394.91
2022-09-26T15:28:57.954Z,99397.41
2022-09-26T15:31:37.220Z,99391.34
2022-09-26T15:34:16.453Z,99386.94
2022-09-26T15:36:48.603Z,99386.84
2022-09-26T15:39:39.098Z,99370.66
2022-09-26T15:42:44.375Z,99380.66
2022-09-26T15:45:27.615Z,99381.59
2022-09-26T15:47:59.942Z,99381.09
2022-09-26T15:50:37.590Z,99376.00
2022-09-26T15:53:14.297Z,99368.09
2022-09-26T15:55:49.211Z,99363.44
2022-09-26T15:58:21.677Z,99355.41
2022-09-26T16:00:54.304Z,99267.00
2022-09-26T16:03:45.499Z,99351.91
2022-09-26T16:06:26.377Z,99354.13
2022-09-26T16:09:00.808Z,99353.47
2022-09-26T16:11:32.326Z,99348.31
2022-09-26T16:14:02.025Z,99343.94
2022-09-26T16:16:35.976Z,99305.16
2022-09-26T16:19:07.004Z,99344.75
2022-09-26T16:21:37.733Z,99334.25
2022-09-26T16:24:31.386Z,99335.47
2022-09-26T16:27:01.025Z,99338.72
2022-09-26T16:29:35.332Z,99328.75
2022-09-26T16:32:05.777Z,99332.06
2022-09-26T16:34:36.207Z,99331.75
2022-09-26T16:37:23.064Z,99336.81
2022-09-26T16:39:59.099Z,99332.34
2022-09-26T16:42:32.987Z,99324.47
2022-09-26T16:45:07.446Z,99281.00
2022-09-26T16:47:43.903Z,99276.41
2022-09-26T16:50:29.006Z,99328.66
2022-09-26T16:53:06.425Z,99329.44
2022-09-26T16:55:37.883Z,99332.84
2022-09-26T16:58:07.273Z,99327.28
2022-09-26T17:00:54.378Z,99327.13
2022-09-26T17:03:25.576Z,99320.72
2022-09-26T17:06:00.304Z,99321.34
2022-09-26T17:08:30.026Z,99321.19
2022-09-26T17:11:02.788Z,99323.63
2022-09-26T17:13:35.271Z,99320.88
2022-09-26T17:16:04.994Z,99321.63
2022-09-26T17:18:34.964Z,99318.44
2022-09-26T17:21:05.503Z,99318.25
2022-09-26T17:23:41.128Z,99320.59
2022-09-26T17:26:19.701Z,99321.94
2022-09-26T17:28:48.891Z,99312.56
2022-09-26T17:31:20.717Z,99311.22
2022-09-26T17:33:52.778Z,99305.66
2022-09-26T17:36:25.715Z,99302.69
2022-09-26T17:38:54.857Z,99299.63
2022-09-26T17:41:25.395Z,99297.50
2022-09-26T17:43:59.072Z,99309.59
2022-09-26T17:46:28.342Z,99301.31
2022-09-26T17:48:59.270Z,99299.91
2022-09-26T17:51:31.265Z,99303.47
2022-09-26T17:54:00.668Z,99300.94
2022-09-26T17:56:29.799Z,99290.47
2022-09-26T17:58:59.276Z,99289.84
2022-09-26T18:01:33.603Z,99283.19
2022-09-26T18:04:07.648Z,99282.63
2022-09-26T18:06:38.155Z,99284.59
2022-09-26T18:09:10.444Z,99282.63
2022-09-26T18:11:41.958Z,99287.06
2022-09-26T18:14:17.159Z,99286.41
2022-09-26T18:16:46.669Z,99283.88
2022-09-26T18:19:15.715Z,99276.47
2022-09-26T18:21:46.124Z,99281.88
2022-09-26T18:24:19.856Z,99276.78
2022-09-26T18:26:50.981Z,99268.13
2022-09-26T18:29:26.369Z,99268.25
2022-09-26T18:31:55.937Z,99264.50
2022-09-26T18:34:26.027Z,99260.25
2022-09-26T18:37:00.424Z,99262.16
2022-09-26T18:39:31.306Z,99269.00
2022-09-26T18:42:03.522Z,99268.72
2022-09-26T18:44:35.163Z,99262.63
2022-09-26T18:47:06.024Z,99271.22
2022-09-26T18:49:41.429Z,99268.84
2022-09-26T18:52:16.530Z,99264.03
2022-09-26T18:54:46.499Z,99261.69
2022-09-26T18:57:33.573Z,99263.34
2022-09-26T19:00:10.579Z,99265.91
2022-09-26T19:02:40.739Z,99257.78
2022-09-26T19:05:15.679Z,99261.78
2022-09-26T19:07:46.081Z,99262.25
2022-09-26T19:10:17.823Z,99262.59
2022-09-26T19:12:46.954Z,99257.66
2022-09-26T19:15:19.038Z,99256.97
2022-09-26T19:17:50.061Z,99258.19
2022-09-26T19:20:19.172Z,99253.16
2022-09-26T19:22:50.822Z,99252.38
2022-09-26T19:25:19.825Z,99249.94
2022-09-26T19:27:52.997Z,99252.91
2022-09-26T19:30:23.097Z,99246.81
2022-09-26T19:32:53.875Z,99251.31
2022-09-26T19:35:26.842Z,99250.66
2022-09-26T19:37:57.654Z,99248.19
2022-09-26T19:40:27.559Z,99253.75
2022-09-26T19:42:57.430Z,99245.22
2022-09-26T19:45:32.252Z,99241.78
2022-09-26T19:48:01.645Z,99241.91
2022-09-26T19:50:33.114Z,99238.59
2022-09-26T19:53:04.716Z,99237.00
2022-09-26T19:55:33.833Z,99233.63
2022-09-26T19:58:08.664Z,99231.16
2022-09-26T20:00:41.591Z,99225.94
2022-09-26T20:03:18.605Z,99224.25
2022-09-26T20:05:49.428Z,99223.38
2022-09-26T20:08:23.456Z,99228.66
2022-09-26T20:10:54.761Z,99224.25
2022-09-26T20:13:24.164Z,99217.19
2022-09-26T20:15:53.085Z,99217.28
2022-09-26T20:18:25.228Z,99211.31
2022-09-26T20:20:56.870Z,99213.19
2022-09-26T20:23:28.496Z,99211.31
2022-09-26T20:25:57.785Z,99209.75
2022-09-26T20:28:26.616Z,99205.56
2022-09-26T20:30:58.550Z,99199.47
2022-09-26T20:33:28.316Z,99161.75
2022-09-26T20:36:04.012Z,99195.22
2022-09-26T20:38:39.250Z,99196.25
2022-09-26T20:41:13.889Z,99192.06
2022-09-26T20:43:48.127Z,99189.69
2022-09-26T20:46:18.421Z,99187.03
2022-09-26T20:48:48.488Z,99185.25
2022-09-26T20:51:22.202Z,99180.91
2022-09-26T20:53:53.171Z,99180.91
2022-09-26T20:56:22.165Z,99177.44
2022-09-26T20:58:51.078Z,99174.81
2022-09-26T21:01:21.591Z,99171.13
2022-09-26T21:03:52.122Z,99178.25
2022-09-26T21:06:23.513Z,99175.34
2022-09-26T21:08:53.876Z,99181.69
2022-09-26T21:11:23.739Z,99174.06
2022-09-26T21:13:52.639Z,99169.31
2022-09-26T21:16:22.611Z,99173.28
2022-09-26T21:18:53.814Z,99172.91
2022-09-26T21:21:25.302Z,99171.63
2022-09-26T21:24:06.107Z,99175.03
2022-09-26T21:26:34.985Z,99163.75
2022-09-26T21:29:07.215Z,99160.44
2022-09-26T21:31:37.214Z,99159.00
2022-09-26T21:34:12.050Z,99153.69
2022-09-26T21:36:41.774Z,99150.88
2022-09-26T21:39:13.583Z,99149.31
2022-09-26T21:41:42.522Z,99141.78
2022-09-26T21:44:17.843Z,99148.34
2022-09-26T21:46:46.906Z,99148.72
2022-09-26T21:49:16.360Z,99143.00
2022-09-26T21:51:48.509Z,99140.06
2022-09-26T21:54:22.498Z,99138.78
2022-09-26T21:56:54.925Z,99142.97
2022-09-26T21:59:25.470Z,99147.09
2022-09-26T22:01:54.407Z,99132.94
2022-09-26T22:04:23.995Z,99134.72
2022-09-26T22:06:52.844Z,99121.59
2022-09-26T22:09:23.103Z,99126.22
2022-09-26T22:11:51.986Z,99118.47
2022-09-26T22:14:20.878Z,99109.91
2022-09-26T22:16:50.651Z,99110.09
2022-09-26T22:19:19.544Z,99106.81
2022-09-26T22:21:48.469Z,99102.69
2022-09-26T22:24:17.449Z,99097.00
2022-09-26T22:26:47.736Z,99093.78
2022-09-26T22:29:16.795Z,99089.72
2022-09-26T22:31:46.037Z,99090.84
2022-09-26T22:34:15.845Z,99081.41
2022-09-26T22:36:44.793Z,99079.47
2022-09-26T22:39:13.665Z,99080.06
2022-09-26T22:41:42.593Z,99069.31
2022-09-26T22:44:13.030Z,99075.22
2022-09-26T22:46:41.947Z,99061.75
2022-09-26T22:49:10.788Z,99064.03
2022-09-26T22:51:39.682Z,99059.41
2022-09-26T22:54:08.529Z,99052.38
2022-09-26T22:56:37.445Z,99050.66
2022-09-26T22:59:06.289Z,99041.00
2022-09-26T23:01:36.587Z,99041.00
2022-09-26T23:04:05.951Z,99038.34
2022-09-26T23:06:34.797Z,99029.63
2022-09-26T23:09:03.731Z,99030.47
2022-09-26T23:11:32.618Z,99021.63
2022-09-26T23:14:01.565Z,99018.59
2022-09-26T23:16:30.431Z,99025.16
2022-09-26T23:19:00.821Z,99014.00
2022-09-26T23:21:29.867Z,99010.97
2022-09-26T23:24:00.329Z,99005.28
2022-09-26T23:26:31.970Z,99001.38
2022-09-26T23:29:01.627Z,98995.88
2022-09-26T23:31:31.044Z,98994.72
2022-09-26T23:34:01.430Z,98995.41
2022-09-26T23:36:30.570Z,98985.59
2022-09-26T23:38:59.880Z,98992.69
2022-09-26T23:41:28.833Z,98987.38
2022-09-26T23:43:57.770Z,98982.00
2022-09-26T23:46:26.696Z,98978.38
2022-09-26T23:48:55.789Z,98864.19
2022-09-26T23:51:26.031Z,98967.44
2022-09-26T23:53:56.356Z,98966.44
2022-09-26T23:56:25.245Z,98958.41
2022-09-26T23:58:56.396Z,98963.53
